Scout — WDI8661 — position and weather

sailwx.info

Track history (hours):
 
Tides and Currents Weather Stations Pressure Air Temp Water Temp Dewpoint Dewpoint Depression Visibility Wind Speed Wind Dir Waves Ship Positions

Scout

Owner: Harley Marine Services, Inc, Seattle, WA. More information available from US FCC via Universal Licensing System and Coast Guard Vessel Documentation Center.

Last reported at 2017-Dec-16 11:07 UTC. Time now 2017-Dec-16 12:51 UTC.
Position N 29°42' W 095°03'.

Length 23 m; draft 3.3 m.

Type: Towing. MMSI: 367740860.

Date/timePositionNaut miles runAvg speedWind from/ knotsBaromVisibWave heightAir tempDewpointWater temp
2017-Dec-16 11:07N 29°42' W 095°03'0 0.0
2017-Dec-16 09:17N 29°42' W 095°03'0 0.0
2017-Dec-16 08:58N 29°42' W 095°03'0 0.0
2017-Dec-16 00:58N 29°42' W 095°03'0 0.2
2017-Dec-16 00:27N 29°42' W 095°03'0 0.0
2017-Dec-16 00:00N 29°42' W 095°03'0 0.0
2017-Dec-15 23:29N 29°42' W 095°03'0 0.0
2017-Dec-15 23:00N 29°42' W 095°03'0 0.0
2017-Dec-15 22:25N 29°42' W 095°03'0 0.0
2017-Dec-15 21:53N 29°42' W 095°03'0 0.0
2017-Dec-15 04:22N 29°42' W 095°03'0 0.0
2017-Dec-15 00:23N 29°42' W 095°03'0 0.0
2017-Dec-14 18:31N 29°42' W 095°03'0 0.0
2017-Dec-14 18:00N 29°42' W 095°03'0 0.0
2017-Dec-14 17:30N 29°42' W 095°03'0 0.0
2017-Dec-14 17:00N 29°42' W 095°03'0 0.0
2017-Dec-14 16:30N 29°42' W 095°03'0 0.0
2017-Dec-14 16:00N 29°42' W 095°03'0 0.0
2017-Dec-14 15:00N 29°42' W 095°03'0 0.0
2017-Dec-14 14:30N 29°42' W 095°03'0 0.2
2017-Dec-14 13:57N 29°42' W 095°03'0 0.0
2017-Dec-14 12:33N 29°42' W 095°03'0 0.0
2017-Dec-14 12:12N 29°42' W 095°03'0 0.0
2017-Dec-14 11:55N 29°42' W 095°03'0 0.0
2017-Dec-14 10:38N 29°42' W 095°03'0 0.0
2017-Dec-14 10:30N 29°42' W 095°03'0 0.0
2017-Dec-14 09:48N 29°42' W 095°03'0 0.0
2017-Dec-14 09:22N 29°42' W 095°03'0 0.0
2017-Dec-14 08:57N 29°42' W 095°03'0 0.0
2017-Dec-14 07:07N 29°42' W 095°03'0 0.0
2017-Dec-14 06:31N 29°42' W 095°03'0 0.0
2017-Dec-14 06:29N 29°42' W 095°03'0 0.0
2017-Dec-14 05:55N 29°42' W 095°03'0 0.0
2017-Dec-14 05:30N 29°42' W 095°03'0 0.0
2017-Dec-14 04:58N 29°42' W 095°03'0 0.0
2017-Dec-14 04:29N 29°42' W 095°03'0 0.0
2017-Dec-14 03:57N 29°42' W 095°03'0 0.0
2017-Dec-14 03:27N 29°42' W 095°03'0 0.0
2017-Dec-14 02:58N 29°42' W 095°03'0 0.0
2017-Dec-14 02:12N 29°42' W 095°03'0 0.0
2017-Dec-14 01:15N 29°42' W 095°03'0 0.0
2017-Dec-14 00:20N 29°42' W 095°03'0 0.0
2017-Dec-14 00:00N 29°42' W 095°03'1 2.5
2017-Dec-13 23:30N 29°42' W 095°01'3 6.7
2017-Dec-13 23:00N 29°45' W 095°04'2 4.1
2017-Dec-13 22:30N 29°45' W 095°06'0 0.0
2017-Dec-13 22:00N 29°45' W 095°06'0 0.0
2017-Dec-13 21:30N 29°45' W 095°06'0 0.0
2017-Dec-13 20:59N 29°45' W 095°06'0 0.0
2017-Dec-13 20:30N 29°45' W 095°06'2 2.8
2017-Dec-13 19:50N 29°46' W 095°04'3 8.7
2017-Dec-13 19:30N 29°44' W 095°01'1 3.0
2017-Dec-13 19:00N 29°42' W 095°02'0 0.7
2017-Dec-13 18:30N 29°42' W 095°03'0 0.0
2017-Dec-13 18:00N 29°42' W 095°03'0 0.1
2017-Dec-13 17:22N 29°42' W 095°03'0 0.0
2017-Dec-13 16:57N 29°42' W 095°03'0 0.0
2017-Dec-13 16:29N 29°42' W 095°03'0 0.0
2017-Dec-13 15:01N 29°42' W 095°03'0 0.0
2017-Dec-13 14:45N 29°42' W 095°03'0 0.0
2017-Dec-13 12:53N 29°42' W 095°03'0 0.0
2017-Dec-13 12:24N 29°42' W 095°03'0 0.0
2017-Dec-13 03:00N 29°42' W 095°03'1 1.7
2017-Dec-13 02:24N 29°42' W 095°02'2 4.4
2017-Dec-13 02:00N 29°44' W 095°03'3 6.0
2017-Dec-13 01:30N 29°45' W 095°05'4 7.7
2017-Dec-13 01:01N 29°45' W 095°10'0 0.8
2017-Dec-13 00:30N 29°45' W 095°10'0 0.0
2017-Dec-12 23:11N 29°45' W 095°10'0 0.0
2017-Dec-12 22:23N 29°45' W 095°10'0 0.2
2017-Dec-12 21:59N 29°45' W 095°10'1 2.8
2017-Dec-12 21:31N 29°44' W 095°09'4 6.7
2017-Dec-12 20:55N 29°46' W 095°05'3 6.6
2017-Dec-12 20:27N 29°44' W 095°02'2 3.4
2017-Dec-12 20:00N 29°42' W 095°02'1 1.1
2017-Dec-12 19:30N 29°42' W 095°03'0 0.0
2017-Dec-12 17:45N 29°42' W 095°03'0 0.0
2017-Dec-12 17:07N 29°42' W 095°03'1 2.6
2017-Dec-12 16:37N 29°42' W 095°01'1 7.8
2017-Dec-12 16:28N 29°43' W 095°01'4 8.5
2017-Dec-12 16:00N 29°46' W 095°05'0 0.1
2017-Dec-12 15:30N 29°46' W 095°05'0 0.1
2017-Dec-12 15:00N 29°46' W 095°05'4 5.9
2017-Dec-12 14:23N 29°44' W 095°01'1 3.8
2017-Dec-12 14:00N 29°42' W 095°02'0 0.8
2017-Dec-12 13:31N 29°42' W 095°03'0 0.0
2017-Dec-12 13:01N 29°42' W 095°03'0 0.0
2017-Dec-12 12:30N 29°42' W 095°03'0 0.0
2017-Dec-12 12:01N 29°42' W 095°03'0 0.0
2017-Dec-12 11:31N 29°42' W 095°03'0 0.0
2017-Dec-12 11:00N 29°42' W 095°03'0 0.0
2017-Dec-12 10:31N 29°42' W 095°03'0 0.0
2017-Dec-12 10:00N 29°42' W 095°03'0 0.0
2017-Dec-12 09:31N 29°42' W 095°03'0 0.0
2017-Dec-12 09:00N 29°42' W 095°03'0 0.0
2017-Dec-12 08:30N 29°42' W 095°03'0 0.0
2017-Dec-12 08:00N 29°42' W 095°03'0 0.0
2017-Dec-12 07:30N 29°42' W 095°03'0 0.0
2017-Dec-12 07:01N 29°42' W 095°03'0 0.0
2017-Dec-12 06:30N 29°42' W 095°03'0 0.0
2017-Dec-12 06:01N 29°42' W 095°03'0 0.0
2017-Dec-12 05:30N 29°42' W 095°03'0 0.0
2017-Dec-12 05:00N 29°42' W 095°03'0 0.0
2017-Dec-12 04:30N 29°42' W 095°03'0 0.0
2017-Dec-12 04:00N 29°42' W 095°03'0 0.0
2017-Dec-12 03:30N 29°42' W 095°03'0 0.0
2017-Dec-12 03:00N 29°42' W 095°03'0 0.0
2017-Dec-12 02:31N 29°42' W 095°03'0 0.0
2017-Dec-12 02:00N 29°42' W 095°03'0 0.0
2017-Dec-12 01:30N 29°42' W 095°03'0 0.0
2017-Dec-12 01:00N 29°42' W 095°03'0 0.0
2017-Dec-12 00:30N 29°42' W 095°03'0 0.0
2017-Dec-12 00:01N 29°42' W 095°03'0 0.0
2017-Dec-11 23:31N 29°42' W 095°03'0 0.0
2017-Dec-11 23:00N 29°42' W 095°03'0 0.0
2017-Dec-11 22:30N 29°42' W 095°03'0 0.0
2017-Dec-11 22:00N 29°42' W 095°03'0 0.0
2017-Dec-11 21:30N 29°42' W 095°03'0 0.0
2017-Dec-11 21:00N 29°42' W 095°03'0 0.0
2017-Dec-11 20:29N 29°42' W 095°03'0 0.0
2017-Dec-11 20:00N 29°42' W 095°03'0 0.0
2017-Dec-11 19:31N 29°42' W 095°03'0 0.0
2017-Dec-11 19:01N 29°42' W 095°03'0 0.0
2017-Dec-11 18:30N 29°42' W 095°03'0 0.0
2017-Dec-11 18:00N 29°42' W 095°03'0 0.0
2017-Dec-11 17:31N 29°42' W 095°03'0 0.0
2017-Dec-11 17:01N 29°42' W 095°03'0 0.0
2017-Dec-11 16:30N 29°42' W 095°03'0 0.0
2017-Dec-11 16:01N 29°42' W 095°03'0 0.0
2017-Dec-11 15:31N 29°42' W 095°03'0 0.1
2017-Dec-11 15:00N 29°42' W 095°03'0 0.1
2017-Dec-11 14:30N 29°42' W 095°03'0 0.0
2017-Dec-11 14:01N 29°42' W 095°03'0 0.0
2017-Dec-11 13:31N 29°42' W 095°03'0 0.0
2017-Dec-11 13:00N 29°42' W 095°03'0 0.0
2017-Dec-11 12:30N 29°42' W 095°03'0 0.0
2017-Dec-11 12:01N 29°42' W 095°03'0 0.0
2017-Dec-11 11:31N 29°42' W 095°03'0 0.0
2017-Dec-11 11:00N 29°42' W 095°03'0 0.0
2017-Dec-11 10:31N 29°42' W 095°03'0 0.0
2017-Dec-11 10:00N 29°42' W 095°03'0 0.0
2017-Dec-11 09:31N 29°42' W 095°03'0 0.0
2017-Dec-11 09:01N 29°42' W 095°03'0 0.0
2017-Dec-11 08:31N 29°42' W 095°03'0 0.0
2017-Dec-11 08:01N 29°42' W 095°03'0 0.0
2017-Dec-11 07:30N 29°42' W 095°03'0 0.0
2017-Dec-11 07:00N 29°42' W 095°03'0 0.0
2017-Dec-11 06:30N 29°42' W 095°03'0 0.0
2017-Dec-11 06:01N 29°42' W 095°03'0 0.0
2017-Dec-11 05:30N 29°42' W 095°03'0 0.0
2017-Dec-11 05:01N 29°42' W 095°03'0 0.0
2017-Dec-11 04:30N 29°42' W 095°03'0 0.0
2017-Dec-11 04:01N 29°42' W 095°03'0 0.0
2017-Dec-11 03:31N 29°42' W 095°03'0 0.0
2017-Dec-11 03:00N 29°42' W 095°03'0 0.0
2017-Dec-11 02:31N 29°42' W 095°03'0 0.0
2017-Dec-11 02:01N 29°42' W 095°03'0 0.0
2017-Dec-11 01:30N 29°42' W 095°03'0 0.0
2017-Dec-11 01:00N 29°42' W 095°03'0 0.0
2017-Dec-11 00:30N 29°42' W 095°03'0 0.2
2017-Dec-11 00:01N 29°42' W 095°03'1 2.2
2017-Dec-10 23:29N 29°42' W 095°02'3 7.1
2017-Dec-10 23:01N 29°40' W 094°58'4 8.5
2017-Dec-10 22:30N 29°36' W 094°57'13 1.6
2017-Dec-10 14:44N 29°25' W 094°50'4 9.4
2017-Dec-10 14:17N 29°29' W 094°52'3 9.4
2017-Dec-10 13:59N 29°31' W 094°53'5 9.6
2017-Dec-10 13:31N 29°35' W 094°56'4 8.9
2017-Dec-10 13:01N 29°39' W 094°58'4 8.1
2017-Dec-10 12:30N 29°42' W 095°02'1 2.2
2017-Dec-10 12:00N 29°42' W 095°03'0 0.0
2017-Dec-10 11:30N 29°42' W 095°03'0 0.0
2017-Dec-10 11:00N 29°42' W 095°03'0 0.0
2017-Dec-10 10:30N 29°42' W 095°03'0 0.0
2017-Dec-10 10:01N 29°42' W 095°03'0 0.0
2017-Dec-10 09:30N 29°42' W 095°03'0 0.0
2017-Dec-10 09:00N 29°42' W 095°03'0 0.0
2017-Dec-10 08:30N 29°42' W 095°03'0 0.0
2017-Dec-10 07:59N 29°42' W 095°03'0 0.0
2017-Dec-10 07:30N 29°42' W 095°03'0 0.0
2017-Dec-10 07:00N 29°42' W 095°03'0 0.0
2017-Dec-10 06:30N 29°42' W 095°03'0 0.0
2017-Dec-10 06:00N 29°42' W 095°03'0 0.0
2017-Dec-10 05:30N 29°42' W 095°03'0 0.0
2017-Dec-10 05:00N 29°42' W 095°03'0 0.0
2017-Dec-10 04:29N 29°42' W 095°03'0 0.0
2017-Dec-10 03:59N 29°42' W 095°03'0 0.0
2017-Dec-10 03:30N 29°42' W 095°03'0 0.0
2017-Dec-10 03:00N 29°42' W 095°03'0 0.0
2017-Dec-10 02:30N 29°42' W 095°03'0 0.0
2017-Dec-10 02:00N 29°42' W 095°03'0 0.0
2017-Dec-10 01:29N 29°42' W 095°03'0 0.0
2017-Dec-10 00:58N 29°42' W 095°03'0 0.0
2017-Dec-10 00:29N 29°42' W 095°03'0 0.0
2017-Dec-10 00:00N 29°42' W 095°03'0 0.0
2017-Dec-09 23:30N 29°42' W 095°03'0 0.0
2017-Dec-09 23:00N 29°42' W 095°03'0 0.0
2017-Dec-09 22:30N 29°42' W 095°03'0 0.0
2017-Dec-09 22:00N 29°42' W 095°03'0 0.0
2017-Dec-09 21:26N 29°42' W 095°03'0 0.0
2017-Dec-09 20:58N 29°42' W 095°03'0 0.0
2017-Dec-09 20:30N 29°42' W 095°03'0 0.0
2017-Dec-09 20:00N 29°42' W 095°03'0 0.0
2017-Dec-09 19:28N 29°42' W 095°03'0 0.0
2017-Dec-09 19:00N 29°42' W 095°03'0 0.0
2017-Dec-09 18:28N 29°42' W 095°03'0 0.0
2017-Dec-09 17:59N 29°42' W 095°03'0 0.0
2017-Dec-09 17:30N 29°42' W 095°03'0 0.0
2017-Dec-09 16:59N 29°42' W 095°03'0 0.0
2017-Dec-09 16:30N 29°42' W 095°03'0 0.0
2017-Dec-09 15:59N 29°42' W 095°03'0 0.0
2017-Dec-09 15:30N 29°42' W 095°03'0 0.0
2017-Dec-09 15:00N 29°42' W 095°03'0 0.0
2017-Dec-09 14:30N 29°42' W 095°03'0 0.0
2017-Dec-09 14:00N 29°42' W 095°03'0 0.0
2017-Dec-09 13:30N 29°42' W 095°03'0 0.0
2017-Dec-09 13:00N 29°42' W 095°03'0 0.0
2017-Dec-09 12:31N 29°42' W 095°03'0 0.0
2017-Dec-09 12:00N 29°42' W 095°03'0 0.0
2017-Dec-09 11:30N 29°42' W 095°03'0 0.0
2017-Dec-09 10:48N 29°42' W 095°03'0 0.0
2017-Dec-09 10:29N 29°42' W 095°03'0 0.0
2017-Dec-09 10:00N 29°42' W 095°03'0 0.0
2017-Dec-09 09:31N 29°42' W 095°03'0 0.0
2017-Dec-09 09:00N 29°42' W 095°03'0 0.0
2017-Dec-09 08:30N 29°42' W 095°03'0 0.0
2017-Dec-09 08:00N 29°42' W 095°03'0 0.0
2017-Dec-09 07:30N 29°42' W 095°03'0 0.0
2017-Dec-09 06:58N 29°42' W 095°03'0 0.0
2017-Dec-09 06:30N 29°42' W 095°03'0 0.0
2017-Dec-09 06:00N 29°42' W 095°03'0 0.0
2017-Dec-09 05:30N 29°42' W 095°03'0 0.0
2017-Dec-09 05:00N 29°42' W 095°03'0 0.0
2017-Dec-09 04:30N 29°42' W 095°03'0 0.0
2017-Dec-09 04:00N 29°42' W 095°03'0 0.0
2017-Dec-09 03:30N 29°42' W 095°03'0 0.0
2017-Dec-09 03:00N 29°42' W 095°03'0 0.0
2017-Dec-09 02:30N 29°42' W 095°03'0 0.0
2017-Dec-09 02:00N 29°42' W 095°03'0 0.0
2017-Dec-09 01:30N 29°42' W 095°03'0 0.0
2017-Dec-09 00:59N 29°42' W 095°03'0 0.0
2017-Dec-09 00:29N 29°42' W 095°03'0 0.0
2017-Dec-09 00:00N 29°42' W 095°03'0 0.0
2017-Dec-08 23:30N 29°42' W 095°03'0 0.0
2017-Dec-08 23:00N 29°42' W 095°03'5 7.6
2017-Dec-08 22:25N 29°44' W 095°08'511.0
2017-Dec-08 22:00N 29°42' W 095°03'2 3.5
2017-Dec-08 21:31N 29°44' W 095°01'4 8.1
2017-Dec-08 21:00N 29°46' W 095°05'4 7.3
2017-Dec-08 20:29N 29°44' W 095°09'1 1.1
2017-Dec-08 20:00N 29°45' W 095°10'0 0.0
2017-Dec-08 19:31N 29°45' W 095°10'0 0.0
2017-Dec-08 19:01N 29°45' W 095°10'0 0.0
2017-Dec-08 18:31N 29°45' W 095°10'0 0.0
2017-Dec-08 18:00N 29°45' W 095°10'0 0.0
2017-Dec-08 17:31N 29°45' W 095°10'0 0.0
2017-Dec-08 17:01N 29°45' W 095°10'0 0.0
2017-Dec-08 16:31N 29°45' W 095°10'0 0.0
2017-Dec-08 16:01N 29°45' W 095°10'0 0.0
2017-Dec-08 15:31N 29°45' W 095°10'0 0.0
2017-Dec-08 15:01N 29°45' W 095°10'0 0.2
2017-Dec-08 14:26N 29°45' W 095°10'0 0.2
2017-Dec-08 13:55N 29°45' W 095°10'1 1.0
2017-Dec-08 13:23N 29°44' W 095°09'3 6.7
2017-Dec-08 12:53N 29°45' W 095°06'2 6.1
2017-Dec-08 12:30N 29°44' W 095°03'3 5.3
2017-Dec-08 12:00N 29°42' W 095°01'1 2.6
2017-Dec-08 11:31N 29°42' W 095°03'0 0.0
2017-Dec-08 11:01N 29°42' W 095°03'0 0.0
2017-Dec-08 10:30N 29°42' W 095°03'0 0.0
2017-Dec-08 10:01N 29°42' W 095°03'0 0.0
2017-Dec-08 09:30N 29°42' W 095°03'0 0.0
2017-Dec-08 09:00N 29°42' W 095°03'0 0.0
2017-Dec-08 08:30N 29°42' W 095°03'0 0.0
2017-Dec-08 08:01N 29°42' W 095°03'0 0.0
2017-Dec-08 07:30N 29°42' W 095°03'0 0.0
2017-Dec-08 07:01N 29°42' W 095°03'0 0.0
2017-Dec-08 06:30N 29°42' W 095°03'0 0.0
2017-Dec-08 06:00N 29°42' W 095°03'0 0.0
2017-Dec-08 05:31N 29°42' W 095°03'0 0.0
2017-Dec-08 05:01N 29°42' W 095°03'0 0.0
2017-Dec-08 04:29N 29°42' W 095°03'0 0.0
2017-Dec-08 04:00N 29°42' W 095°03'1 2.3
2017-Dec-08 03:30N 29°42' W 095°01'4 7.3
2017-Dec-08 03:00N 29°45' W 095°04'2 0.4
2017-Dec-07 22:26N 29°45' W 095°06'0 0.3
2017-Dec-07 21:44N 29°45' W 095°06'1 1.4
2017-Dec-07 21:22N 29°45' W 095°06'1 3.3
2017-Dec-07 21:00N 29°46' W 095°04'2 5.0
2017-Dec-07 20:30N 29°44' W 095°02'2 3.1
2017-Dec-07 19:59N 29°42' W 095°03'0 0.0
2017-Dec-07 19:30N 29°42' W 095°03'0 0.0
2017-Dec-07 18:59N 29°42' W 095°03'0 0.0
2017-Dec-07 18:30N 29°42' W 095°03'0 0.0
2017-Dec-07 18:00N 29°42' W 095°03'0 0.0
2017-Dec-07 17:30N 29°42' W 095°03'0 0.0
2017-Dec-07 17:00N 29°42' W 095°03'0 0.0
2017-Dec-07 16:30N 29°42' W 095°03'0 0.0
2017-Dec-07 16:00N 29°42' W 095°03'0 0.0
2017-Dec-07 15:30N 29°42' W 095°03'0 0.0
2017-Dec-07 15:00N 29°42' W 095°03'0 0.0
2017-Dec-07 14:30N 29°42' W 095°03'0 0.0
2017-Dec-07 14:00N 29°42' W 095°03'0 0.0
2017-Dec-07 13:30N 29°42' W 095°03'0 0.0
2017-Dec-07 13:00N 29°42' W 095°03'0 0.0
2017-Dec-07 12:30N 29°42' W 095°03'0 0.0
2017-Dec-07 12:00N 29°42' W 095°03'0 0.0
2017-Dec-07 11:30N 29°42' W 095°03'0 0.0
2017-Dec-07 11:00N 29°42' W 095°03'0 0.0
2017-Dec-07 10:31N 29°42' W 095°03'0 0.0
2017-Dec-07 10:00N 29°42' W 095°03'0 0.0
2017-Dec-07 09:30N 29°42' W 095°03'0 0.0
2017-Dec-07 09:00N 29°42' W 095°03'0 0.0
2017-Dec-07 08:30N 29°42' W 095°03'0 0.0
2017-Dec-07 08:00N 29°42' W 095°03'0 0.0
2017-Dec-07 07:30N 29°42' W 095°03'0 0.0
2017-Dec-07 07:00N 29°42' W 095°03'0 0.0
2017-Dec-07 06:30N 29°42' W 095°03'0 0.0
2017-Dec-07 06:00N 29°42' W 095°03'0 0.0
2017-Dec-07 05:30N 29°42' W 095°03'0 0.0
2017-Dec-07 04:59N 29°42' W 095°03'0 0.0
2017-Dec-07 04:30N 29°42' W 095°03'0 0.0
2017-Dec-07 04:00N 29°42' W 095°03'0 0.0
2017-Dec-07 03:30N 29°42' W 095°03'0 0.0
2017-Dec-07 03:00N 29°42' W 095°03'0 0.0
2017-Dec-07 02:31N 29°42' W 095°03'0 0.0
2017-Dec-07 02:00N 29°42' W 095°03'0 0.0
2017-Dec-07 01:30N 29°42' W 095°03'0 0.0
2017-Dec-07 01:00N 29°42' W 095°03'0 0.0
2017-Dec-07 00:29N 29°42' W 095°03'0 0.0
2017-Dec-07 00:00N 29°42' W 095°03'0 0.0
2017-Dec-06 23:29N 29°42' W 095°03'  
Track history (hours):
 
Tides and Currents Weather Stations Pressure Air Temp Water Temp Dewpoint Dewpoint Depression Visibility Wind Speed Wind Dir Waves Ship Positions

Scout

Owner: Harley Marine Services, Inc, Seattle, WA. More information available from US FCC via Universal Licensing System and Coast Guard Vessel Documentation Center.

Last reported at 2017-Dec-16 11:07 UTC. Time now 2017-Dec-16 12:51 UTC.
Position N 29°42' W 095°03'.

Length 23 m; draft 3.3 m.

Type: Towing. MMSI: 367740860.

Date/timePositionNaut miles runAvg speedWind from/ knotsBaromVisibWave heightAir tempDewpointWater temp
2017-Dec-16 11:07N 29°42' W 095°03'0 0.0
2017-Dec-16 09:17N 29°42' W 095°03'0 0.0
2017-Dec-16 08:58N 29°42' W 095°03'0 0.0
2017-Dec-16 00:58N 29°42' W 095°03'0 0.2
2017-Dec-16 00:27N 29°42' W 095°03'0 0.0
2017-Dec-16 00:00N 29°42' W 095°03'0 0.0
2017-Dec-15 23:29N 29°42' W 095°03'0 0.0
2017-Dec-15 23:00N 29°42' W 095°03'0 0.0
2017-Dec-15 22:25N 29°42' W 095°03'0 0.0
2017-Dec-15 21:53N 29°42' W 095°03'0 0.0
2017-Dec-15 04:22N 29°42' W 095°03'0 0.0
2017-Dec-15 00:23N 29°42' W 095°03'0 0.0
2017-Dec-14 18:31N 29°42' W 095°03'0 0.0
2017-Dec-14 18:00N 29°42' W 095°03'0 0.0
2017-Dec-14 17:30N 29°42' W 095°03'0 0.0
2017-Dec-14 17:00N 29°42' W 095°03'0 0.0
2017-Dec-14 16:30N 29°42' W 095°03'0 0.0
2017-Dec-14 16:00N 29°42' W 095°03'0 0.0
2017-Dec-14 15:00N 29°42' W 095°03'0 0.0
2017-Dec-14 14:30N 29°42' W 095°03'0 0.2
2017-Dec-14 13:57N 29°42' W 095°03'0 0.0
2017-Dec-14 12:33N 29°42' W 095°03'0 0.0
2017-Dec-14 12:12N 29°42' W 095°03'0 0.0
2017-Dec-14 11:55N 29°42' W 095°03'0 0.0
2017-Dec-14 10:38N 29°42' W 095°03'0 0.0
2017-Dec-14 10:30N 29°42' W 095°03'0 0.0
2017-Dec-14 09:48N 29°42' W 095°03'0 0.0
2017-Dec-14 09:22N 29°42' W 095°03'0 0.0
2017-Dec-14 08:57N 29°42' W 095°03'0 0.0
2017-Dec-14 07:07N 29°42' W 095°03'0 0.0
2017-Dec-14 06:31N 29°42' W 095°03'0 0.0
2017-Dec-14 06:29N 29°42' W 095°03'0 0.0
2017-Dec-14 05:55N 29°42' W 095°03'0 0.0
2017-Dec-14 05:30N 29°42' W 095°03'0 0.0
2017-Dec-14 04:58N 29°42' W 095°03'0 0.0
2017-Dec-14 04:29N 29°42' W 095°03'0 0.0
2017-Dec-14 03:57N 29°42' W 095°03'0 0.0
2017-Dec-14 03:27N 29°42' W 095°03'0 0.0
2017-Dec-14 02:58N 29°42' W 095°03'0 0.0
2017-Dec-14 02:12N 29°42' W 095°03'0 0.0
2017-Dec-14 01:15N 29°42' W 095°03'0 0.0
2017-Dec-14 00:20N 29°42' W 095°03'0 0.0
2017-Dec-14 00:00N 29°42' W 095°03'1 2.5
2017-Dec-13 23:30N 29°42' W 095°01'3 6.7
2017-Dec-13 23:00N 29°45' W 095°04'2 4.1
2017-Dec-13 22:30N 29°45' W 095°06'0 0.0
2017-Dec-13 22:00N 29°45' W 095°06'0 0.0
2017-Dec-13 21:30N 29°45' W 095°06'0 0.0
2017-Dec-13 20:59N 29°45' W 095°06'0 0.0
2017-Dec-13 20:30N 29°45' W 095°06'2 2.8
2017-Dec-13 19:50N 29°46' W 095°04'3 8.7
2017-Dec-13 19:30N 29°44' W 095°01'1 3.0
2017-Dec-13 19:00N 29°42' W 095°02'0 0.7
2017-Dec-13 18:30N 29°42' W 095°03'0 0.0
2017-Dec-13 18:00N 29°42' W 095°03'0 0.1
2017-Dec-13 17:22N 29°42' W 095°03'0 0.0
2017-Dec-13 16:57N 29°42' W 095°03'0 0.0
2017-Dec-13 16:29N 29°42' W 095°03'0 0.0
2017-Dec-13 15:01N 29°42' W 095°03'0 0.0
2017-Dec-13 14:45N 29°42' W 095°03'0 0.0
2017-Dec-13 12:53N 29°42' W 095°03'0 0.0
2017-Dec-13 12:24N 29°42' W 095°03'0 0.0
2017-Dec-13 03:00N 29°42' W 095°03'1 1.7
2017-Dec-13 02:24N 29°42' W 095°02'2 4.4
2017-Dec-13 02:00N 29°44' W 095°03'3 6.0
2017-Dec-13 01:30N 29°45' W 095°05'4 7.7
2017-Dec-13 01:01N 29°45' W 095°10'0 0.8
2017-Dec-13 00:30N 29°45' W 095°10'0 0.0
2017-Dec-12 23:11N 29°45' W 095°10'0 0.0
2017-Dec-12 22:23N 29°45' W 095°10'0 0.2
2017-Dec-12 21:59N 29°45' W 095°10'1 2.8
2017-Dec-12 21:31N 29°44' W 095°09'4 6.7
2017-Dec-12 20:55N 29°46' W 095°05'3 6.6
2017-Dec-12 20:27N 29°44' W 095°02'2 3.4
2017-Dec-12 20:00N 29°42' W 095°02'1 1.1
2017-Dec-12 19:30N 29°42' W 095°03'0 0.0
2017-Dec-12 17:45N 29°42' W 095°03'0 0.0
2017-Dec-12 17:07N 29°42' W 095°03'1 2.6
2017-Dec-12 16:37N 29°42' W 095°01'1 7.8
2017-Dec-12 16:28N 29°43' W 095°01'4 8.5
2017-Dec-12 16:00N 29°46' W 095°05'0 0.1
2017-Dec-12 15:30N 29°46' W 095°05'0 0.1
2017-Dec-12 15:00N 29°46' W 095°05'4 5.9
2017-Dec-12 14:23N 29°44' W 095°01'1 3.8
2017-Dec-12 14:00N 29°42' W 095°02'0 0.8
2017-Dec-12 13:31N 29°42' W 095°03'0 0.0
2017-Dec-12 13:01N 29°42' W 095°03'0 0.0
2017-Dec-12 12:30N 29°42' W 095°03'0 0.0
2017-Dec-12 12:01N 29°42' W 095°03'0 0.0
2017-Dec-12 11:31N 29°42' W 095°03'0 0.0
2017-Dec-12 11:00N 29°42' W 095°03'0 0.0
2017-Dec-12 10:31N 29°42' W 095°03'0 0.0
2017-Dec-12 10:00N 29°42' W 095°03'0 0.0
2017-Dec-12 09:31N 29°42' W 095°03'0 0.0
2017-Dec-12 09:00N 29°42' W 095°03'0 0.0
2017-Dec-12 08:30N 29°42' W 095°03'0 0.0
2017-Dec-12 08:00N 29°42' W 095°03'0 0.0
2017-Dec-12 07:30N 29°42' W 095°03'0 0.0
2017-Dec-12 07:01N 29°42' W 095°03'0 0.0
2017-Dec-12 06:30N 29°42' W 095°03'0 0.0
2017-Dec-12 06:01N 29°42' W 095°03'0 0.0
2017-Dec-12 05:30N 29°42' W 095°03'0 0.0
2017-Dec-12 05:00N 29°42' W 095°03'0 0.0
2017-Dec-12 04:30N 29°42' W 095°03'0 0.0
2017-Dec-12 04:00N 29°42' W 095°03'0 0.0
2017-Dec-12 03:30N 29°42' W 095°03'0 0.0
2017-Dec-12 03:00N 29°42' W 095°03'0 0.0
2017-Dec-12 02:31N 29°42' W 095°03'0 0.0
2017-Dec-12 02:00N 29°42' W 095°03'0 0.0
2017-Dec-12 01:30N 29°42' W 095°03'0 0.0
2017-Dec-12 01:00N 29°42' W 095°03'0 0.0
2017-Dec-12 00:30N 29°42' W 095°03'0 0.0
2017-Dec-12 00:01N 29°42' W 095°03'0 0.0
2017-Dec-11 23:31N 29°42' W 095°03'0 0.0
2017-Dec-11 23:00N 29°42' W 095°03'0 0.0
2017-Dec-11 22:30N 29°42' W 095°03'0 0.0
2017-Dec-11 22:00N 29°42' W 095°03'0 0.0
2017-Dec-11 21:30N 29°42' W 095°03'0 0.0
2017-Dec-11 21:00N 29°42' W 095°03'0 0.0
2017-Dec-11 20:29N 29°42' W 095°03'0 0.0
2017-Dec-11 20:00N 29°42' W 095°03'0 0.0
2017-Dec-11 19:31N 29°42' W 095°03'0 0.0
2017-Dec-11 19:01N 29°42' W 095°03'0 0.0
2017-Dec-11 18:30N 29°42' W 095°03'0 0.0
2017-Dec-11 18:00N 29°42' W 095°03'0 0.0
2017-Dec-11 17:31N 29°42' W 095°03'0 0.0
2017-Dec-11 17:01N 29°42' W 095°03'0 0.0
2017-Dec-11 16:30N 29°42' W 095°03'0 0.0
2017-Dec-11 16:01N 29°42' W 095°03'0 0.0
2017-Dec-11 15:31N 29°42' W 095°03'0 0.1
2017-Dec-11 15:00N 29°42' W 095°03'0 0.1
2017-Dec-11 14:30N 29°42' W 095°03'0 0.0
2017-Dec-11 14:01N 29°42' W 095°03'0 0.0
2017-Dec-11 13:31N 29°42' W 095°03'0 0.0
2017-Dec-11 13:00N 29°42' W 095°03'0 0.0
2017-Dec-11 12:30N 29°42' W 095°03'0 0.0
2017-Dec-11 12:01N 29°42' W 095°03'0 0.0
2017-Dec-11 11:31N 29°42' W 095°03'0 0.0
2017-Dec-11 11:00N 29°42' W 095°03'0 0.0
2017-Dec-11 10:31N 29°42' W 095°03'0 0.0
2017-Dec-11 10:00N 29°42' W 095°03'0 0.0
2017-Dec-11 09:31N 29°42' W 095°03'0 0.0
2017-Dec-11 09:01N 29°42' W 095°03'0 0.0
2017-Dec-11 08:31N 29°42' W 095°03'0 0.0
2017-Dec-11 08:01N 29°42' W 095°03'0 0.0
2017-Dec-11 07:30N 29°42' W 095°03'0 0.0
2017-Dec-11 07:00N 29°42' W 095°03'0 0.0
2017-Dec-11 06:30N 29°42' W 095°03'0 0.0
2017-Dec-11 06:01N 29°42' W 095°03'0 0.0
2017-Dec-11 05:30N 29°42' W 095°03'0 0.0
2017-Dec-11 05:01N 29°42' W 095°03'0 0.0
2017-Dec-11 04:30N 29°42' W 095°03'0 0.0
2017-Dec-11 04:01N 29°42' W 095°03'0 0.0
2017-Dec-11 03:31N 29°42' W 095°03'0 0.0
2017-Dec-11 03:00N 29°42' W 095°03'0 0.0
2017-Dec-11 02:31N 29°42' W 095°03'0 0.0
2017-Dec-11 02:01N 29°42' W 095°03'0 0.0
2017-Dec-11 01:30N 29°42' W 095°03'0 0.0
2017-Dec-11 01:00N 29°42' W 095°03'0 0.0
2017-Dec-11 00:30N 29°42' W 095°03'0 0.2
2017-Dec-11 00:01N 29°42' W 095°03'1 2.2
2017-Dec-10 23:29N 29°42' W 095°02'3 7.1
2017-Dec-10 23:01N 29°40' W 094°58'4 8.5
2017-Dec-10 22:30N 29°36' W 094°57'13 1.6
2017-Dec-10 14:44N 29°25' W 094°50'4 9.4
2017-Dec-10 14:17N 29°29' W 094°52'3 9.4
2017-Dec-10 13:59N 29°31' W 094°53'5 9.6
2017-Dec-10 13:31N 29°35' W 094°56'4 8.9
2017-Dec-10 13:01N 29°39' W 094°58'4 8.1
2017-Dec-10 12:30N 29°42' W 095°02'1 2.2
2017-Dec-10 12:00N 29°42' W 095°03'0 0.0
2017-Dec-10 11:30N 29°42' W 095°03'0 0.0
2017-Dec-10 11:00N 29°42' W 095°03'0 0.0
2017-Dec-10 10:30N 29°42' W 095°03'0 0.0
2017-Dec-10 10:01N 29°42' W 095°03'0 0.0
2017-Dec-10 09:30N 29°42' W 095°03'0 0.0
2017-Dec-10 09:00N 29°42' W 095°03'0 0.0
2017-Dec-10 08:30N 29°42' W 095°03'0 0.0
2017-Dec-10 07:59N 29°42' W 095°03'0 0.0
2017-Dec-10 07:30N 29°42' W 095°03'0 0.0
2017-Dec-10 07:00N 29°42' W 095°03'0 0.0
2017-Dec-10 06:30N 29°42' W 095°03'0 0.0
2017-Dec-10 06:00N 29°42' W 095°03'0 0.0
2017-Dec-10 05:30N 29°42' W 095°03'0 0.0
2017-Dec-10 05:00N 29°42' W 095°03'0 0.0
2017-Dec-10 04:29N 29°42' W 095°03'0 0.0
2017-Dec-10 03:59N 29°42' W 095°03'0 0.0
2017-Dec-10 03:30N 29°42' W 095°03'0 0.0
2017-Dec-10 03:00N 29°42' W 095°03'0 0.0
2017-Dec-10 02:30N 29°42' W 095°03'0 0.0
2017-Dec-10 02:00N 29°42' W 095°03'0 0.0
2017-Dec-10 01:29N 29°42' W 095°03'0 0.0
2017-Dec-10 00:58N 29°42' W 095°03'0 0.0
2017-Dec-10 00:29N 29°42' W 095°03'0 0.0
2017-Dec-10 00:00N 29°42' W 095°03'0 0.0
2017-Dec-09 23:30N 29°42' W 095°03'0 0.0
2017-Dec-09 23:00N 29°42' W 095°03'0 0.0
2017-Dec-09 22:30N 29°42' W 095°03'0 0.0
2017-Dec-09 22:00N 29°42' W 095°03'0 0.0
2017-Dec-09 21:26N 29°42' W 095°03'0 0.0
2017-Dec-09 20:58N 29°42' W 095°03'0 0.0
2017-Dec-09 20:30N 29°42' W 095°03'0 0.0
2017-Dec-09 20:00N 29°42' W 095°03'0 0.0
2017-Dec-09 19:28N 29°42' W 095°03'0 0.0
2017-Dec-09 19:00N 29°42' W 095°03'0 0.0
2017-Dec-09 18:28N 29°42' W 095°03'0 0.0
2017-Dec-09 17:59N 29°42' W 095°03'0 0.0
2017-Dec-09 17:30N 29°42' W 095°03'0 0.0
2017-Dec-09 16:59N 29°42' W 095°03'0 0.0
2017-Dec-09 16:30N 29°42' W 095°03'0 0.0
2017-Dec-09 15:59N 29°42' W 095°03'0 0.0
2017-Dec-09 15:30N 29°42' W 095°03'0 0.0
2017-Dec-09 15:00N 29°42' W 095°03'0 0.0
2017-Dec-09 14:30N 29°42' W 095°03'0 0.0
2017-Dec-09 14:00N 29°42' W 095°03'0 0.0
2017-Dec-09 13:30N 29°42' W 095°03'0 0.0
2017-Dec-09 13:00N 29°42' W 095°03'0 0.0
2017-Dec-09 12:31N 29°42' W 095°03'0 0.0
2017-Dec-09 12:00N 29°42' W 095°03'0 0.0
2017-Dec-09 11:30N 29°42' W 095°03'0 0.0
2017-Dec-09 10:48N 29°42' W 095°03'0 0.0
2017-Dec-09 10:29N 29°42' W 095°03'0 0.0
2017-Dec-09 10:00N 29°42' W 095°03'0 0.0
2017-Dec-09 09:31N 29°42' W 095°03'0 0.0
2017-Dec-09 09:00N 29°42' W 095°03'0 0.0
2017-Dec-09 08:30N 29°42' W 095°03'0 0.0
2017-Dec-09 08:00N 29°42' W 095°03'0 0.0
2017-Dec-09 07:30N 29°42' W 095°03'0 0.0
2017-Dec-09 06:58N 29°42' W 095°03'0 0.0
2017-Dec-09 06:30N 29°42' W 095°03'0 0.0
2017-Dec-09 06:00N 29°42' W 095°03'0 0.0
2017-Dec-09 05:30N 29°42' W 095°03'0 0.0
2017-Dec-09 05:00N 29°42' W 095°03'0 0.0
2017-Dec-09 04:30N 29°42' W 095°03'0 0.0
2017-Dec-09 04:00N 29°42' W 095°03'0 0.0
2017-Dec-09 03:30N 29°42' W 095°03'0 0.0
2017-Dec-09 03:00N 29°42' W 095°03'0 0.0
2017-Dec-09 02:30N 29°42' W 095°03'0 0.0
2017-Dec-09 02:00N 29°42' W 095°03'0 0.0
2017-Dec-09 01:30N 29°42' W 095°03'0 0.0
2017-Dec-09 00:59N 29°42' W 095°03'0 0.0
2017-Dec-09 00:29N 29°42' W 095°03'0 0.0
2017-Dec-09 00:00N 29°42' W 095°03'0 0.0
2017-Dec-08 23:30N 29°42' W 095°03'0 0.0
2017-Dec-08 23:00N 29°42' W 095°03'5 7.6
2017-Dec-08 22:25N 29°44' W 095°08'511.0
2017-Dec-08 22:00N 29°42' W 095°03'2 3.5
2017-Dec-08 21:31N 29°44' W 095°01'4 8.1
2017-Dec-08 21:00N 29°46' W 095°05'4 7.3
2017-Dec-08 20:29N 29°44' W 095°09'1 1.1
2017-Dec-08 20:00N 29°45' W 095°10'0 0.0
2017-Dec-08 19:31N 29°45' W 095°10'0 0.0
2017-Dec-08 19:01N 29°45' W 095°10'0 0.0
2017-Dec-08 18:31N 29°45' W 095°10'0 0.0
2017-Dec-08 18:00N 29°45' W 095°10'0 0.0
2017-Dec-08 17:31N 29°45' W 095°10'0 0.0
2017-Dec-08 17:01N 29°45' W 095°10'0 0.0
2017-Dec-08 16:31N 29°45' W 095°10'0 0.0
2017-Dec-08 16:01N 29°45' W 095°10'0 0.0
2017-Dec-08 15:31N 29°45' W 095°10'0 0.0
2017-Dec-08 15:01N 29°45' W 095°10'0 0.2
2017-Dec-08 14:26N 29°45' W 095°10'0 0.2
2017-Dec-08 13:55N 29°45' W 095°10'1 1.0
2017-Dec-08 13:23N 29°44' W 095°09'3 6.7
2017-Dec-08 12:53N 29°45' W 095°06'2 6.1
2017-Dec-08 12:30N 29°44' W 095°03'3 5.3
2017-Dec-08 12:00N 29°42' W 095°01'1 2.6
2017-Dec-08 11:31N 29°42' W 095°03'0 0.0
2017-Dec-08 11:01N 29°42' W 095°03'0 0.0
2017-Dec-08 10:30N 29°42' W 095°03'0 0.0
2017-Dec-08 10:01N 29°42' W 095°03'0 0.0
2017-Dec-08 09:30N 29°42' W 095°03'0 0.0
2017-Dec-08 09:00N 29°42' W 095°03'0 0.0
2017-Dec-08 08:30N 29°42' W 095°03'0 0.0
2017-Dec-08 08:01N 29°42' W 095°03'0 0.0
2017-Dec-08 07:30N 29°42' W 095°03'0 0.0
2017-Dec-08 07:01N 29°42' W 095°03'0 0.0
2017-Dec-08 06:30N 29°42' W 095°03'0 0.0
2017-Dec-08 06:00N 29°42' W 095°03'0 0.0
2017-Dec-08 05:31N 29°42' W 095°03'0 0.0
2017-Dec-08 05:01N 29°42' W 095°03'0 0.0
2017-Dec-08 04:29N 29°42' W 095°03'0 0.0
2017-Dec-08 04:00N 29°42' W 095°03'1 2.3
2017-Dec-08 03:30N 29°42' W 095°01'4 7.3
2017-Dec-08 03:00N 29°45' W 095°04'2 0.4
2017-Dec-07 22:26N 29°45' W 095°06'0 0.3
2017-Dec-07 21:44N 29°45' W 095°06'1 1.4
2017-Dec-07 21:22N 29°45' W 095°06'1 3.3
2017-Dec-07 21:00N 29°46' W 095°04'2 5.0
2017-Dec-07 20:30N 29°44' W 095°02'2 3.1
2017-Dec-07 19:59N 29°42' W 095°03'0 0.0
2017-Dec-07 19:30N 29°42' W 095°03'0 0.0
2017-Dec-07 18:59N 29°42' W 095°03'0 0.0
2017-Dec-07 18:30N 29°42' W 095°03'0 0.0
2017-Dec-07 18:00N 29°42' W 095°03'0 0.0
2017-Dec-07 17:30N 29°42' W 095°03'0 0.0
2017-Dec-07 17:00N 29°42' W 095°03'0 0.0
2017-Dec-07 16:30N 29°42' W 095°03'0 0.0
2017-Dec-07 16:00N 29°42' W 095°03'0 0.0
2017-Dec-07 15:30N 29°42' W 095°03'0 0.0
2017-Dec-07 15:00N 29°42' W 095°03'0 0.0
2017-Dec-07 14:30N 29°42' W 095°03'0 0.0
2017-Dec-07 14:00N 29°42' W 095°03'0 0.0
2017-Dec-07 13:30N 29°42' W 095°03'0 0.0
2017-Dec-07 13:00N 29°42' W 095°03'0 0.0
2017-Dec-07 12:30N 29°42' W 095°03'0 0.0
2017-Dec-07 12:00N 29°42' W 095°03'0 0.0
2017-Dec-07 11:30N 29°42' W 095°03'0 0.0
2017-Dec-07 11:00N 29°42' W 095°03'0 0.0
2017-Dec-07 10:31N 29°42' W 095°03'0 0.0
2017-Dec-07 10:00N 29°42' W 095°03'0 0.0
2017-Dec-07 09:30N 29°42' W 095°03'0 0.0
2017-Dec-07 09:00N 29°42' W 095°03'0 0.0
2017-Dec-07 08:30N 29°42' W 095°03'0 0.0
2017-Dec-07 08:00N 29°42' W 095°03'0 0.0
2017-Dec-07 07:30N 29°42' W 095°03'0 0.0
2017-Dec-07 07:00N 29°42' W 095°03'0 0.0
2017-Dec-07 06:30N 29°42' W 095°03'0 0.0
2017-Dec-07 06:00N 29°42' W 095°03'0 0.0
2017-Dec-07 05:30N 29°42' W 095°03'0 0.0
2017-Dec-07 04:59N 29°42' W 095°03'0 0.0
2017-Dec-07 04:30N 29°42' W 095°03'0 0.0
2017-Dec-07 04:00N 29°42' W 095°03'0 0.0
2017-Dec-07 03:30N 29°42' W 095°03'0 0.0
2017-Dec-07 03:00N 29°42' W 095°03'0 0.0
2017-Dec-07 02:31N 29°42' W 095°03'0 0.0
2017-Dec-07 02:00N 29°42' W 095°03'0 0.0
2017-Dec-07 01:30N 29°42' W 095°03'0 0.0
2017-Dec-07 01:00N 29°42' W 095°03'0 0.0
2017-Dec-07 00:29N 29°42' W 095°03'0 0.0
2017-Dec-07 00:00N 29°42' W 095°03'0 0.0
2017-Dec-06 23:29N 29°42' W 095°03'  

Dump ship's entire track history